Time,TemperatureF,DewpointF,PressureIn,WindDirection,WindDirectionDegrees,WindSpeedMPH,WindSpeedGustMPH,Humidity,HourlyPrecipIn,Conditions,Clouds,dailyrainin,SoftwareType,DateUTC
2013-03-18 00:01:00,39.4,19.2,30.44,SW,225,2.0,11.0,44,0.00,,,0.00,meteohub,2013-03-18 06:01:00,
2013-03-18 00:06:00,39.4,19.2,30.44,SW,225,2.0,11.0,44,0.00,,,0.00,meteohub,2013-03-18 06:06:00,
2013-03-18 00:11:00,39.2,19.0,30.43,SE,135,3.0,11.0,44,0.00,,,0.00,meteohub,2013-03-18 06:11:00,
2013-03-18 00:17:00,39.0,19.4,30.44,South,180,2.0,4.0,45,0.00,,,0.00,meteohub,2013-03-18 06:17:00,
2013-03-18 00:22:00,38.8,19.8,30.44,SW,225,3.0,6.0,46,0.00,,,0.00,meteohub,2013-03-18 06:22:00,
2013-03-18 00:27:00,38.7,19.6,30.44,South,180,7.0,8.0,46,0.00,,,0.00,meteohub,2013-03-18 06:27:00,
2013-03-18 00:32:00,38.8,20.3,30.44,SE,135,7.0,8.0,47,0.00,,,0.00,meteohub,2013-03-18 06:32:00,
2013-03-18 00:37:00,38.7,20.1,30.44,South,180,5.0,8.0,47,0.00,,,0.00,meteohub,2013-03-18 06:37:00,
2013-03-18 00:43:00,38.3,19.8,30.44,SE,135,6.0,8.0,47,0.00,,,0.00,meteohub,2013-03-18 06:43:00,
2013-03-18 00:48:00,38.7,19.6,30.44,SW,225,2.0,8.0,46,0.00,,,0.00,meteohub,2013-03-18 06:48:00,
2013-03-18 00:53:00,38.5,19.6,30.44,NE,45,2.0,8.0,46,0.00,,,0.00,meteohub,2013-03-18 06:53:00,
2013-03-18 00:58:00,38.1,18.7,30.44,South,180,2.0,8.0,45,0.00,,,0.00,meteohub,2013-03-18 06:58:00,
2013-03-18 01:03:00,37.6,18.1,30.44,SW,225,1.0,6.0,45,0.00,,,0.00,meteohub,2013-03-18 07:03:00,
2013-03-18 01:08:00,37.4,18.0,30.44,SSW,203,8.0,8.0,45,0.00,,,0.00,meteohub,2013-03-18 07:08:00,
2013-03-18 01:13:00,37.6,14.9,30.44,East,90,3.0,8.0,39,0.00,,,0.00,meteohub,2013-03-18 07:13:00,
2013-03-18 01:19:00,38.3,13.1,30.44,SE,135,4.0,8.0,35,0.00,,,0.00,meteohub,2013-03-18 07:19:00,
2013-03-18 01:24:00,38.8,10.8,30.44,North,0,5.0,8.0,31,0.00,,,0.00,meteohub,2013-03-18 07:24:00,
2013-03-18 01:29:00,38.5,10.4,30.44,NE,45,5.0,9.0,31,0.00,,,0.00,meteohub,2013-03-18 07:29:00,
2013-03-18 01:34:00,38.7,10.6,30.44,SE,135,3.0,9.0,31,0.00,,,0.00,meteohub,2013-03-18 07:34:00,
2013-03-18 01:40:00,39.0,9.5,30.44,SW,225,4.0,12.0,29,0.00,,,0.00,meteohub,2013-03-18 07:40:00,
2013-03-18 01:45:00,39.0,9.5,30.44,SW,225,2.0,12.0,29,0.00,,,0.00,meteohub,2013-03-18 07:45:00,
2013-03-18 01:50:00,38.8,8.4,30.44,SW,225,2.0,8.0,28,0.00,,,0.00,meteohub,2013-03-18 07:50:00,
2013-03-18 01:55:00,38.5,8.2,30.44,East,90,2.0,6.0,28,0.00,,,0.00,meteohub,2013-03-18 07:55:00,
2013-03-18 02:00:00,38.3,8.1,30.45,NE,45,5.0,8.0,28,0.00,,,0.00,meteohub,2013-03-18 08:00:00,
2013-03-18 02:05:00,38.3,8.1,30.45,NE,45,5.0,8.0,28,0.00,,,0.00,meteohub,2013-03-18 08:05:00,
2013-03-18 02:11:00,38.1,7.9,30.45,SE,135,2.0,8.0,28,0.00,,,0.00,meteohub,2013-03-18 08:11:00,
2013-03-18 02:16:00,38.3,8.1,30.45,SSW,203,4.0,7.0,28,0.00,,,0.00,meteohub,2013-03-18 08:16:00,
2013-03-18 02:22:00,38.5,8.2,30.45,SW,225,4.0,9.0,28,0.00,,,0.00,meteohub,2013-03-18 08:22:00,
2013-03-18 02:27:00,38.1,7.9,30.45,East,90,2.0,9.0,28,0.00,,,0.00,meteohub,2013-03-18 08:27:00,
2013-03-18 02:32:00,37.8,7.5,30.45,North,0,4.0,9.0,28,0.00,,,0.00,meteohub,2013-03-18 08:32:00,
2013-03-18 02:37:00,37.6,7.3,30.45,NE,45,2.0,4.0,28,0.00,,,0.00,meteohub,2013-03-18 08:37:00,
2013-03-18 02:42:00,37.6,7.3,30.45,North,0,4.0,4.0,28,0.00,,,0.00,meteohub,2013-03-18 08:42:00,
2013-03-18 02:47:00,37.0,3.6,30.45,East,90,2.0,5.0,24,0.00,,,0.00,meteohub,2013-03-18 08:47:00,
2013-03-18 02:52:00,36.7,3.2,30.45,South,180,2.0,5.0,24,0.00,,,0.00,meteohub,2013-03-18 08:52:00,
2013-03-18 02:57:00,36.9,3.4,30.45,East,90,4.0,8.0,24,0.00,,,0.00,meteohub,2013-03-18 08:57:00,
2013-03-18 03:02:00,36.3,3.0,30.45,West,270,3.0,8.0,24,0.00,,,0.00,meteohub,2013-03-18 09:02:00,
2013-03-18 03:08:00,35.4,3.9,30.45,South,180,2.0,8.0,26,0.00,,,0.00,meteohub,2013-03-18 09:08:00,
2013-03-18 03:13:00,34.5,3.9,30.45,SW,225,3.0,4.0,27,0.00,,,0.00,meteohub,2013-03-18 09:13:00,
2013-03-18 03:18:00,34.2,4.5,30.45,West,270,2.0,4.0,28,0.00,,,0.00,meteohub,2013-03-18 09:18:00,
2013-03-18 03:23:00,34.5,4.8,30.45,North,0,3.0,3.0,28,0.00,,,0.00,meteohub,2013-03-18 09:23:00,
2013-03-18 03:29:00,34.7,4.1,30.45,SW,225,3.0,4.0,27,0.00,,,0.00,meteohub,2013-03-18 09:29:00,
2013-03-18 03:34:00,34.0,4.3,30.45,SW,225,2.0,4.0,28,0.00,,,0.00,meteohub,2013-03-18 09:34:00,
2013-03-18 03:39:00,33.6,4.8,30.45,SW,225,3.0,4.0,29,0.00,,,0.00,meteohub,2013-03-18 09:39:00,
2013-03-18 03:44:00,34.0,3.6,30.45,SW,225,4.0,8.0,27,0.00,,,0.00,meteohub,2013-03-18 09:44:00,
2013-03-18 03:50:00,34.3,3.0,30.45,North,0,4.0,8.0,26,0.00,,,0.00,meteohub,2013-03-18 09:50:00,
2013-03-18 03:55:00,34.9,2.7,30.45,South,180,3.0,8.0,25,0.00,,,0.00,meteohub,2013-03-18 09:55:00,
2013-03-18 04:00:00,35.1,2.8,30.45,SW,225,2.0,5.0,25,0.00,,,0.00,meteohub,2013-03-18 10:00:00,
2013-03-18 04:05:00,35.1,2.8,30.45,SW,225,2.0,5.0,25,0.00,,,0.00,meteohub,2013-03-18 10:05:00,
2013-03-18 04:10:00,35.1,2.8,30.45,North,0,4.0,5.0,25,0.00,,,0.00,meteohub,2013-03-18 10:10:00,
2013-03-18 04:15:00,35.2,2.8,30.45,SE,135,2.0,5.0,25,0.00,,,0.00,meteohub,2013-03-18 10:15:00,
2013-03-18 04:20:00,34.9,1.8,30.45,SW,225,5.0,6.0,24,0.00,,,0.00,meteohub,2013-03-18 10:20:00,
2013-03-18 04:26:00,35.8,0.7,30.45,SW,225,7.0,9.0,22,0.00,,,0.00,meteohub,2013-03-18 10:26:00,
2013-03-18 04:31:00,36.3,1.0,30.45,South,180,2.0,9.0,22,0.00,,,0.00,meteohub,2013-03-18 10:31:00,
2013-03-18 04:36:00,35.2,2.1,30.45,NE,45,4.0,9.0,24,0.00,,,0.00,meteohub,2013-03-18 10:36:00,
2013-03-18 04:41:00,34.9,1.8,30.45,SE,135,4.0,7.0,24,0.00,,,0.00,meteohub,2013-03-18 10:41:00,
2013-03-18 04:46:00,35.1,1.9,30.45,West,270,2.0,6.0,24,0.00,,,0.00,meteohub,2013-03-18 10:46:00,
2013-03-18 04:51:00,35.8,1.6,30.45,SW,225,4.0,8.0,23,0.00,,,0.00,meteohub,2013-03-18 10:51:00,
2013-03-18 04:57:00,35.6,1.4,30.45,South,180,4.0,8.0,23,0.00,,,0.00,meteohub,2013-03-18 10:57:00,
2013-03-18 05:02:00,35.6,1.4,30.45,North,0,2.0,8.0,23,0.00,,,0.00,meteohub,2013-03-18 11:02:00,
2013-03-18 05:07:00,35.6,1.4,30.45,SW,225,3.0,7.0,23,0.00,,,0.00,meteohub,2013-03-18 11:07:00,
2013-03-18 05:12:00,35.6,1.4,30.45,North,0,2.0,7.0,23,0.00,,,0.00,meteohub,2013-03-18 11:12:00,
2013-03-18 05:17:00,34.9,1.8,30.45,South,180,2.0,5.0,24,0.00,,,0.00,meteohub,2013-03-18 11:17:00,
2013-03-18 05:23:00,34.7,1.6,30.45,NE,45,4.0,5.0,24,0.00,,,0.00,meteohub,2013-03-18 11:23:00,
2013-03-18 05:28:00,34.5,1.4,30.45,SE,135,1.0,4.0,24,0.00,,,0.00,meteohub,2013-03-18 11:28:00,
2013-03-18 05:33:00,34.2,1.9,30.45,South,180,2.0,4.0,25,0.00,,,0.00,meteohub,2013-03-18 11:33:00,
2013-03-18 05:38:00,33.6,2.3,30.45,SW,225,2.0,4.0,26,0.00,,,0.00,meteohub,2013-03-18 11:38:00,
2013-03-18 05:44:00,32.7,3.2,30.45,SW,225,2.0,2.0,28,0.00,,,0.00,meteohub,2013-03-18 11:44:00,
2013-03-18 05:49:00,31.5,4.3,30.45,SW,225,2.0,2.0,31,0.00,,,0.00,meteohub,2013-03-18 11:49:00,
2013-03-18 05:54:00,31.1,3.9,30.45,SW,225,2.0,3.0,31,0.00,,,0.00,meteohub,2013-03-18 11:54:00,
2013-03-18 05:59:00,30.9,3.7,30.45,West,270,2.0,3.0,31,0.00,,,0.00,meteohub,2013-03-18 11:59:00,
2013-03-18 06:05:00,30.9,3.7,30.46,West,270,2.0,2.0,31,0.00,,,0.00,meteohub,2013-03-18 12:05:00,
2013-03-18 06:10:00,30.7,4.3,30.45,SW,225,2.0,2.0,32,0.00,,,0.00,meteohub,2013-03-18 12:10:00,
2013-03-18 06:15:00,30.7,4.3,30.45,SW,225,2.0,3.0,32,0.00,,,0.00,meteohub,2013-03-18 12:15:00,
2013-03-18 06:20:00,30.0,6.3,30.45,SW,225,3.0,3.0,36,0.00,,,0.00,meteohub,2013-03-18 12:20:00,
2013-03-18 06:25:00,29.8,6.8,30.46,SW,225,1.0,3.0,37,0.00,,,0.00,meteohub,2013-03-18 12:25:00,
2013-03-18 06:31:00,29.7,5.9,30.46,SW,225,2.0,3.0,36,0.00,,,0.00,meteohub,2013-03-18 12:31:00,
2013-03-18 06:36:00,29.3,7.3,30.46,South,180,2.0,3.0,39,0.00,,,0.00,meteohub,2013-03-18 12:36:00,
2013-03-18 06:41:00,28.9,8.2,30.46,SW,225,2.0,3.0,41,0.00,,,0.00,meteohub,2013-03-18 12:41:00,
2013-03-18 06:46:00,29.1,9.0,30.46,SW,225,2.0,3.0,42,0.00,,,0.00,meteohub,2013-03-18 12:46:00,
2013-03-18 06:51:00,29.1,8.4,30.46,SSW,203,3.0,3.0,41,0.00,,,0.00,meteohub,2013-03-18 12:51:00,
2013-03-18 06:56:00,29.1,9.9,30.46,SW,225,3.0,3.0,44,0.00,,,0.00,meteohub,2013-03-18 12:56:00,
2013-03-18 07:02:00,29.3,10.6,30.46,SW,225,2.0,3.0,45,0.00,,,0.00,meteohub,2013-03-18 13:02:00,
2013-03-18 07:07:00,29.8,9.5,30.46,SW,225,3.0,4.0,42,0.00,,,0.00,meteohub,2013-03-18 13:07:00,
2013-03-18 07:12:00,31.1,9.7,30.46,East,90,3.0,4.0,40,0.00,,,0.00,meteohub,2013-03-18 13:12:00,
2013-03-18 07:17:00,32.2,8.8,30.47,SW,225,7.0,7.0,37,0.00,,,0.00,meteohub,2013-03-18 13:17:00,
2013-03-18 07:22:00,32.9,9.5,30.47,South,180,4.0,7.0,37,0.00,,,0.00,meteohub,2013-03-18 13:22:00,
2013-03-18 07:27:00,33.4,9.3,30.47,NE,45,4.0,7.0,36,0.00,,,0.00,meteohub,2013-03-18 13:27:00,
2013-03-18 07:33:00,34.2,8.8,30.47,NE,45,8.0,8.0,34,0.00,,,0.00,meteohub,2013-03-18 13:33:00,
2013-03-18 07:38:00,34.7,8.6,30.47,SW,225,2.0,8.0,33,0.00,,,0.00,meteohub,2013-03-18 13:38:00,
2013-03-18 07:43:00,35.2,8.2,30.47,South,180,9.0,9.0,32,0.00,,,0.00,meteohub,2013-03-18 13:43:00,
2013-03-18 07:49:00,35.8,7.3,30.47,East,90,8.0,9.0,30,0.00,,,0.00,meteohub,2013-03-18 13:49:00,
2013-03-18 07:54:00,36.1,6.1,30.48,SE,135,7.0,13.0,28,0.00,,,0.00,meteohub,2013-03-18 13:54:00,
2013-03-18 07:59:00,36.5,5.7,30.48,East,90,7.0,13.0,27,0.00,,,0.00,meteohub,2013-03-18 13:59:00,
2013-03-18 08:04:00,36.5,5.7,30.48,East,90,7.0,13.0,27,0.00,,,0.00,meteohub,2013-03-18 14:04:00,
2013-03-18 08:10:00,37.0,6.1,30.48,East,90,5.0,11.0,27,0.00,,,0.00,meteohub,2013-03-18 14:10:00,
2013-03-18 08:15:00,37.2,6.3,30.48,NE,45,15.0,15.0,27,0.00,,,0.00,meteohub,2013-03-18 14:15:00,
2013-03-18 08:20:00,37.4,9.5,30.48,East,90,8.0,15.0,31,0.00,,,0.00,meteohub,2013-03-18 14:20:00,
2013-03-18 08:25:00,37.4,9.5,30.49,SE,135,6.0,15.0,31,0.00,,,0.00,meteohub,2013-03-18 14:25:00,
2013-03-18 08:31:00,37.6,9.7,30.49,North,0,8.0,15.0,31,0.00,,,0.00,meteohub,2013-03-18 14:31:00,
2013-03-18 08:36:00,37.8,9.9,30.49,NNW,338,8.0,11.0,31,0.00,,,0.00,meteohub,2013-03-18 14:36:00,
2013-03-18 08:41:00,37.9,10.0,30.49,NE,45,13.0,13.0,31,0.00,,,0.00,meteohub,2013-03-18 14:41:00,
2013-03-18 08:46:00,37.9,10.0,30.49,South,180,10.0,16.0,31,0.00,,,0.00,meteohub,2013-03-18 14:46:00,
2013-03-18 08:51:00,37.9,10.0,30.50,NE,45,12.0,16.0,31,0.00,,,0.00,meteohub,2013-03-18 14:51:00,
2013-03-18 08:56:00,37.9,10.0,30.50,West,270,3.0,16.0,31,0.00,,,0.00,meteohub,2013-03-18 14:56:00,
2013-03-18 09:01:00,38.1,10.2,30.51,West,270,2.0,17.0,31,0.00,,,0.00,meteohub,2013-03-18 15:01:00,
2013-03-18 09:07:00,38.5,10.4,30.50,NE,45,8.0,17.0,31,0.00,,,0.00,meteohub,2013-03-18 15:07:00,
2013-03-18 09:12:00,38.5,10.4,30.51,North,0,7.0,17.0,31,0.00,,,0.00,meteohub,2013-03-18 15:12:00,
2013-03-18 09:17:00,38.5,10.4,30.51,West,270,8.0,11.0,31,0.00,,,0.00,meteohub,2013-03-18 15:17:00,
2013-03-18 09:22:00,38.8,10.0,30.51,SE,135,8.0,11.0,30,0.00,,,0.00,meteohub,2013-03-18 15:22:00,
2013-03-18 09:27:00,38.8,10.0,30.51,North,0,12.0,13.0,30,0.00,,,0.00,meteohub,2013-03-18 15:27:00,
2013-03-18 09:32:00,38.7,9.9,30.51,NE,45,3.0,18.0,30,0.00,,,0.00,meteohub,2013-03-18 15:32:00,
2013-03-18 09:37:00,38.8,10.8,30.51,SSW,203,4.0,18.0,31,0.00,,,0.00,meteohub,2013-03-18 15:37:00,
2013-03-18 09:43:00,39.2,10.4,30.51,NE,45,3.0,18.0,30,0.00,,,0.00,meteohub,2013-03-18 15:43:00,
2013-03-18 09:48:00,39.7,10.8,30.51,NE,45,7.0,15.0,30,0.00,,,0.00,meteohub,2013-03-18 15:48:00,
2013-03-18 09:53:00,39.9,10.9,30.51,West,270,9.0,15.0,30,0.00,,,0.00,meteohub,2013-03-18 15:53:00,
2013-03-18 09:58:00,40.5,11.5,30.51,NE,45,7.0,11.0,30,0.00,,,0.00,meteohub,2013-03-18 15:58:00,
2013-03-18 10:03:00,40.5,10.8,30.51,North,0,7.0,9.0,29,0.00,,,0.00,meteohub,2013-03-18 16:03:00,
2013-03-18 10:09:00,41.9,9.5,30.51,North,0,4.0,9.0,26,0.00,,,0.00,meteohub,2013-03-18 16:09:00,
2013-03-18 10:14:00,43.3,9.9,30.51,North,0,7.0,7.0,25,0.00,,,0.00,meteohub,2013-03-18 16:14:00,
2013-03-18 10:19:00,43.0,9.5,30.51,West,270,6.0,9.0,25,0.00,,,0.00,meteohub,2013-03-18 16:19:00,
2013-03-18 10:24:00,43.9,10.4,30.52,NE,45,5.0,9.0,25,0.00,,,0.00,meteohub,2013-03-18 16:24:00,
2013-03-18 10:30:00,44.2,10.6,30.52,South,180,7.0,9.0,25,0.00,,,0.00,meteohub,2013-03-18 16:30:00,
2013-03-18 10:35:00,44.2,9.7,30.52,ENE,68,6.0,9.0,24,0.00,,,0.00,meteohub,2013-03-18 16:35:00,
2013-03-18 10:40:00,44.1,9.5,30.52,NW,315,10.0,10.0,24,0.00,,,0.00,meteohub,2013-03-18 16:40:00,
2013-03-18 10:45:00,44.6,9.1,30.52,East,90,8.0,10.0,23,0.00,,,0.00,meteohub,2013-03-18 16:45:00,
2013-03-18 10:51:00,44.2,9.7,30.52,SE,135,11.0,11.0,24,0.00,,,0.00,meteohub,2013-03-18 16:51:00,
2013-03-18 10:56:00,44.6,8.1,30.52,East,90,8.0,11.0,22,0.00,,,0.00,meteohub,2013-03-18 16:56:00,
2013-03-18 11:01:00,44.8,9.1,30.51,NE,45,10.0,14.0,23,0.00,,,0.00,meteohub,2013-03-18 17:01:00,
2013-03-18 11:06:00,45.3,9.7,30.52,SSE,158,7.0,14.0,23,0.00,,,0.00,meteohub,2013-03-18 17:06:00,
2013-03-18 11:11:00,45.9,10.2,30.51,SE,135,5.0,13.0,23,0.00,,,0.00,meteohub,2013-03-18 17:11:00,
2013-03-18 11:17:00,46.6,12.6,30.51,SE,135,8.0,14.0,25,0.00,,,0.00,meteohub,2013-03-18 17:17:00,
2013-03-18 11:22:00,47.1,13.1,30.51,East,90,11.0,14.0,25,0.00,,,0.00,meteohub,2013-03-18 17:22:00,
2013-03-18 11:27:00,47.8,13.6,30.51,South,180,8.0,14.0,25,0.00,,,0.00,meteohub,2013-03-18 17:27:00,
2013-03-18 11:32:00,47.7,13.5,30.51,South,180,8.0,15.0,25,0.00,,,0.00,meteohub,2013-03-18 17:32:00,
2013-03-18 11:37:00,48.0,13.8,30.51,South,180,6.0,15.0,25,0.00,,,0.00,meteohub,2013-03-18 17:37:00,
2013-03-18 11:42:00,48.6,13.5,30.50,East,90,11.0,13.0,24,0.00,,,0.00,meteohub,2013-03-18 17:42:00,
2013-03-18 11:48:00,48.9,13.6,30.51,SE,135,15.0,15.0,24,0.00,,,0.00,meteohub,2013-03-18 17:48:00,
2013-03-18 11:53:00,48.6,13.5,30.50,SE,135,11.0,15.0,24,0.00,,,0.00,meteohub,2013-03-18 17:53:00,
2013-03-18 11:58:00,48.9,13.6,30.50,NE,45,10.0,17.0,24,0.00,,,0.00,meteohub,2013-03-18 17:58:00,
2013-03-18 12:03:00,49.1,13.8,30.51,SE,135,8.0,17.0,24,0.00,,,0.00,meteohub,2013-03-18 18:03:00,
2013-03-18 12:08:00,50.2,13.8,30.51,North,0,12.0,17.0,23,0.00,,,0.00,meteohub,2013-03-18 18:08:00,
2013-03-18 12:13:00,49.8,14.5,30.50,NE,45,5.0,12.0,24,0.00,,,0.00,meteohub,2013-03-18 18:13:00,
2013-03-18 12:18:00,50.0,13.6,30.50,East,90,11.0,12.0,23,0.00,,,0.00,meteohub,2013-03-18 18:18:00,
2013-03-18 12:24:00,49.6,14.4,30.50,SE,135,7.0,17.0,24,0.00,,,0.00,meteohub,2013-03-18 18:24:00,
2013-03-18 12:29:00,50.0,13.6,30.50,North,0,16.0,17.0,23,0.00,,,0.00,meteohub,2013-03-18 18:29:00,
2013-03-18 12:34:00,49.8,14.5,30.50,SE,135,8.0,17.0,24,0.00,,,0.00,meteohub,2013-03-18 18:34:00,
2013-03-18 12:39:00,49.8,14.5,30.50,East,90,8.0,17.0,24,0.00,,,0.00,meteohub,2013-03-18 18:39:00,
2013-03-18 12:44:00,50.5,14.2,30.50,NE,45,7.0,17.0,23,0.00,,,0.00,meteohub,2013-03-18 18:44:00,
2013-03-18 12:49:00,50.7,14.2,30.50,East,90,13.0,17.0,23,0.00,,,0.00,meteohub,2013-03-18 18:49:00,
2013-03-18 12:54:00,51.3,14.7,30.50,NE,45,11.0,13.0,23,0.00,,,0.00,meteohub,2013-03-18 18:54:00,
2013-03-18 13:00:00,51.1,14.5,30.51,South,180,8.0,13.0,23,0.00,,,0.00,meteohub,2013-03-18 19:00:00,
2013-03-18 13:05:00,51.1,14.5,30.50,NE,45,10.0,13.0,23,0.00,,,0.00,meteohub,2013-03-18 19:05:00,
2013-03-18 13:10:00,51.4,14.9,30.50,East,90,8.0,12.0,23,0.00,,,0.00,meteohub,2013-03-18 19:10:00,
2013-03-18 13:16:00,51.1,14.5,30.50,SE,135,14.0,14.0,23,0.00,,,0.00,meteohub,2013-03-18 19:16:00,
2013-03-18 13:21:00,50.5,14.2,30.50,East,90,8.0,17.0,23,0.00,,,0.00,meteohub,2013-03-18 19:21:00,
2013-03-18 13:27:00,50.7,14.2,30.49,NE,45,8.0,17.0,23,0.00,,,0.00,meteohub,2013-03-18 19:27:00,
2013-03-18 13:32:00,50.7,14.2,30.49,East,90,9.0,14.0,23,0.00,,,0.00,meteohub,2013-03-18 19:32:00,
2013-03-18 13:37:00,50.7,14.2,30.50,East,90,7.0,14.0,23,0.00,,,0.00,meteohub,2013-03-18 19:37:00,
2013-03-18 13:42:00,51.3,14.7,30.50,West,270,11.0,14.0,23,0.00,,,0.00,meteohub,2013-03-18 19:42:00,
2013-03-18 13:47:00,50.7,14.2,30.50,East,90,4.0,16.0,23,0.00,,,0.00,meteohub,2013-03-18 19:47:00,
2013-03-18 13:52:00,51.1,14.5,30.49,NE,45,14.0,16.0,23,0.00,,,0.00,meteohub,2013-03-18 19:52:00,
2013-03-18 13:57:00,50.7,14.2,30.49,ENE,68,11.0,16.0,23,0.00,,,0.00,meteohub,2013-03-18 19:57:00,
2013-03-18 14:03:00,50.7,14.2,30.49,East,90,11.0,15.0,23,0.00,,,0.00,meteohub,2013-03-18 20:03:00,
2013-03-18 14:08:00,50.7,14.2,30.49,East,90,7.0,15.0,23,0.00,,,0.00,meteohub,2013-03-18 20:08:00,
2013-03-18 14:13:00,50.9,14.4,30.49,North,0,5.0,15.0,23,0.00,,,0.00,meteohub,2013-03-18 20:13:00,
2013-03-18 14:18:00,51.1,14.5,30.49,NE,45,9.0,13.0,23,0.00,,,0.00,meteohub,2013-03-18 20:18:00,
2013-03-18 14:23:00,50.5,14.2,30.48,WNW,293,15.0,15.0,23,0.00,,,0.00,meteohub,2013-03-18 20:23:00,
2013-03-18 14:28:00,50.0,13.6,30.48,East,90,13.0,15.0,23,0.00,,,0.00,meteohub,2013-03-18 20:28:00,
2013-03-18 14:34:00,50.4,14.0,30.48,SE,135,11.0,17.0,23,0.00,,,0.00,meteohub,2013-03-18 20:34:00,
2013-03-18 14:39:00,50.2,13.8,30.48,SE,135,8.0,17.0,23,0.00,,,0.00,meteohub,2013-03-18 20:39:00,
2013-03-18 14:44:00,50.2,13.8,30.48,East,90,7.0,17.0,23,0.00,,,0.00,meteohub,2013-03-18 20:44:00,
2013-03-18 14:50:00,50.7,14.2,30.48,NE,45,8.0,15.0,23,0.00,,,0.00,meteohub,2013-03-18 20:50:00,
2013-03-18 14:55:00,50.7,14.2,30.48,South,180,11.0,15.0,23,0.00,,,0.00,meteohub,2013-03-18 20:55:00,
2013-03-18 15:00:00,50.4,14.0,30.47,East,90,14.0,17.0,23,0.00,,,0.00,meteohub,2013-03-18 21:00:00,
2013-03-18 15:05:00,50.9,14.4,30.47,NE,45,17.0,17.0,23,0.00,,,0.00,meteohub,2013-03-18 21:05:00,
2013-03-18 15:11:00,50.2,13.8,30.47,NE,45,11.0,17.0,23,0.00,,,0.00,meteohub,2013-03-18 21:11:00,
2013-03-18 15:16:00,49.8,14.5,30.47,SE,135,7.0,23.0,24,0.00,,,0.00,meteohub,2013-03-18 21:16:00,
2013-03-18 15:21:00,49.8,14.5,30.47,East,90,9.0,23.0,24,0.00,,,0.00,meteohub,2013-03-18 21:21:00,
2013-03-18 15:26:00,50.0,13.6,30.47,NE,45,8.0,23.0,23,0.00,,,0.00,meteohub,2013-03-18 21:26:00,
2013-03-18 15:31:00,50.5,14.2,30.46,NE,45,15.0,15.0,23,0.00,,,0.00,meteohub,2013-03-18 21:31:00,
2013-03-18 15:36:00,50.0,13.6,30.46,North,0,11.0,15.0,23,0.00,,,0.00,meteohub,2013-03-18 21:36:00,
2013-03-18 15:42:00,50.0,13.6,30.47,West,270,6.0,17.0,23,0.00,,,0.00,meteohub,2013-03-18 21:42:00,
2013-03-18 15:47:00,50.7,14.2,30.47,East,90,8.0,17.0,23,0.00,,,0.00,meteohub,2013-03-18 21:47:00,
2013-03-18 15:52:00,50.9,14.4,30.46,NE,45,10.0,17.0,23,0.00,,,0.00,meteohub,2013-03-18 21:52:00,
2013-03-18 15:57:00,50.0,13.6,30.46,South,180,5.0,19.0,23,0.00,,,0.00,meteohub,2013-03-18 21:57:00,
2013-03-18 16:03:00,50.2,13.8,30.45,North,0,9.0,19.0,23,0.00,,,0.00,meteohub,2013-03-18 22:03:00,
2013-03-18 16:08:00,49.5,14.2,30.45,NE,45,11.0,19.0,24,0.00,,,0.00,meteohub,2013-03-18 22:08:00,
2013-03-18 16:13:00,49.8,14.5,30.45,ENE,68,10.0,11.0,24,0.00,,,0.00,meteohub,2013-03-18 22:13:00,
2013-03-18 16:18:00,49.8,14.5,30.45,East,90,10.0,15.0,24,0.00,,,0.00,meteohub,2013-03-18 22:18:00,
2013-03-18 16:23:00,50.2,13.8,30.45,North,0,10.0,18.0,23,0.00,,,0.00,meteohub,2013-03-18 22:23:00,
2013-03-18 16:28:00,50.5,14.2,30.45,North,0,12.0,18.0,23,0.00,,,0.00,meteohub,2013-03-18 22:28:00,
2013-03-18 16:33:00,50.0,13.6,30.45,NE,45,16.0,16.0,23,0.00,,,0.00,meteohub,2013-03-18 22:33:00,
2013-03-18 16:38:00,49.3,14.0,30.45,NE,45,13.0,16.0,24,0.00,,,0.00,meteohub,2013-03-18 22:38:00,
2013-03-18 16:44:00,49.1,13.8,30.45,SE,135,9.0,18.0,24,0.00,,,0.00,meteohub,2013-03-18 22:44:00,
2013-03-18 16:49:00,49.3,14.0,30.46,NE,45,11.0,18.0,24,0.00,,,0.00,meteohub,2013-03-18 22:49:00,
2013-03-18 16:54:00,49.1,13.8,30.46,NE,45,8.0,18.0,24,0.00,,,0.00,meteohub,2013-03-18 22:54:00,
2013-03-18 16:59:00,49.3,14.0,30.46,East,90,10.0,15.0,24,0.00,,,0.00,meteohub,2013-03-18 22:59:00,
2013-03-18 17:04:00,48.9,13.6,30.46,NE,45,11.0,15.0,24,0.00,,,0.00,meteohub,2013-03-18 23:04:00,
2013-03-18 17:10:00,48.2,13.1,30.46,North,0,7.0,16.0,24,0.00,,,0.00,meteohub,2013-03-18 23:10:00,
2013-03-18 17:15:00,47.8,13.6,30.46,NE,45,12.0,16.0,25,0.00,,,0.00,meteohub,2013-03-18 23:15:00,
2013-03-18 17:20:00,47.5,13.5,30.46,ENE,68,15.0,16.0,25,0.00,,,0.00,meteohub,2013-03-18 23:20:00,
2013-03-18 17:25:00,47.1,13.1,30.46,NE,45,12.0,15.0,25,0.00,,,0.00,meteohub,2013-03-18 23:25:00,
2013-03-18 17:30:00,46.9,12.9,30.46,North,0,15.0,15.0,25,0.00,,,0.00,meteohub,2013-03-18 23:30:00,
2013-03-18 17:35:00,46.9,12.9,30.46,NE,45,11.0,15.0,25,0.00,,,0.00,meteohub,2013-03-18 23:35:00,
2013-03-18 17:40:00,46.9,12.9,30.46,East,90,8.0,21.0,25,0.00,,,0.00,meteohub,2013-03-18 23:40:00,
2013-03-18 17:46:00,46.9,12.9,30.46,East,90,6.0,21.0,25,0.00,,,0.00,meteohub,2013-03-18 23:46:00,
2013-03-18 17:51:00,47.1,13.1,30.46,West,270,6.0,21.0,25,0.00,,,0.00,meteohub,2013-03-18 23:51:00,
2013-03-18 17:56:00,46.9,12.9,30.47,NE,45,8.0,11.0,25,0.00,,,0.00,meteohub,2013-03-18 23:56:00,
2013-03-18 18:02:00,46.9,12.9,30.47,North,0,6.0,15.0,25,0.00,,,0.00,meteohub,2013-03-19 00:02:00,
2013-03-18 18:07:00,46.9,12.9,30.47,North,0,6.0,15.0,25,0.00,,,0.00,meteohub,2013-03-19 00:07:00,
2013-03-18 18:12:00,46.4,12.6,30.47,NE,45,11.0,11.0,25,0.00,,,0.00,meteohub,2013-03-19 00:12:00,
2013-03-18 18:17:00,46.4,12.6,30.47,NE,45,8.0,14.0,25,0.00,,,0.00,meteohub,2013-03-19 00:17:00,
2013-03-18 18:22:00,46.2,8.4,30.48,North,0,14.0,15.0,21,0.00,,,0.00,meteohub,2013-03-19 00:22:00,
2013-03-18 18:27:00,46.2,8.4,30.47,North,0,4.0,21.0,21,0.00,,,0.00,meteohub,2013-03-19 00:27:00,
2013-03-18 18:33:00,45.9,8.1,30.48,North,0,8.0,21.0,21,0.00,,,0.00,meteohub,2013-03-19 00:33:00,
2013-03-18 18:38:00,45.7,7.9,30.48,SE,135,7.0,21.0,21,0.00,,,0.00,meteohub,2013-03-19 00:38:00,
2013-03-18 18:43:00,45.5,8.8,30.48,SE,135,6.0,16.0,22,0.00,,,0.00,meteohub,2013-03-19 00:43:00,
2013-03-18 18:48:00,45.1,8.6,30.48,SE,135,6.0,16.0,22,0.00,,,0.00,meteohub,2013-03-19 00:48:00,
2013-03-18 18:53:00,44.8,8.2,30.48,NE,45,3.0,11.0,22,0.00,,,0.00,meteohub,2013-03-19 00:53:00,
2013-03-18 18:59:00,44.4,9.0,30.48,SW,225,7.0,11.0,23,0.00,,,0.00,meteohub,2013-03-19 00:59:00,
2013-03-18 19:04:00,44.2,8.8,30.48,East,90,17.0,17.0,23,0.00,,,0.00,meteohub,2013-03-19 01:04:00,
2013-03-18 19:09:00,44.6,8.1,30.48,NE,45,7.0,17.0,22,0.00,,,0.00,meteohub,2013-03-19 01:09:00,
2013-03-18 19:14:00,44.8,8.2,30.48,NE,45,9.0,17.0,22,0.00,,,0.00,meteohub,2013-03-19 01:14:00,
2013-03-18 19:19:00,44.6,8.1,30.48,East,90,12.0,17.0,22,0.00,,,0.00,meteohub,2013-03-19 01:19:00,
2013-03-18 19:24:00,44.6,8.1,30.49,NE,45,5.0,17.0,22,0.00,,,0.00,meteohub,2013-03-19 01:24:00,
2013-03-18 19:30:00,44.4,9.0,30.49,East,90,9.0,17.0,23,0.00,,,0.00,meteohub,2013-03-19 01:30:00,
2013-03-18 19:35:00,44.2,8.8,30.49,East,90,7.0,17.0,23,0.00,,,0.00,meteohub,2013-03-19 01:35:00,
2013-03-18 19:40:00,43.9,8.4,30.49,East,90,4.0,11.0,23,0.00,,,0.00,meteohub,2013-03-19 01:40:00,
2013-03-18 19:45:00,43.5,9.1,30.49,NE,45,11.0,11.0,24,0.00,,,0.00,meteohub,2013-03-19 01:45:00,
2013-03-18 19:50:00,43.9,8.4,30.48,West,270,6.0,15.0,23,0.00,,,0.00,meteohub,2013-03-19 01:50:00,
2013-03-18 19:55:00,44.1,8.6,30.49,WNW,293,11.0,15.0,23,0.00,,,0.00,meteohub,2013-03-19 01:55:00,
2013-03-18 20:00:00,44.2,8.8,30.49,East,90,3.0,15.0,23,0.00,,,0.00,meteohub,2013-03-19 02:00:00,
2013-03-18 20:06:00,44.2,8.8,30.49,East,90,3.0,11.0,23,0.00,,,0.00,meteohub,2013-03-19 02:06:00,
2013-03-18 20:11:00,43.9,8.4,30.49,West,270,6.0,11.0,23,0.00,,,0.00,meteohub,2013-03-19 02:11:00,
2013-03-18 20:16:00,43.7,8.2,30.50,NE,45,4.0,10.0,23,0.00,,,0.00,meteohub,2013-03-19 02:16:00,
2013-03-18 20:21:00,43.5,8.2,30.49,East,90,6.0,10.0,23,0.00,,,0.00,meteohub,2013-03-19 02:21:00,
2013-03-18 20:26:00,43.3,8.1,30.50,East,90,5.0,11.0,23,0.00,,,0.00,meteohub,2013-03-19 02:26:00,
2013-03-18 20:31:00,43.5,8.2,30.50,NE,45,8.0,11.0,23,0.00,,,0.00,meteohub,2013-03-19 02:31:00,
2013-03-18 20:37:00,43.3,8.1,30.50,SE,135,4.0,8.0,23,0.00,,,0.00,meteohub,2013-03-19 02:37:00,
2013-03-18 20:42:00,43.0,7.7,30.50,North,0,7.0,8.0,23,0.00,,,0.00,meteohub,2013-03-19 02:42:00,
2013-03-18 20:47:00,42.8,7.5,30.50,SW,225,2.0,9.0,23,0.00,,,0.00,meteohub,2013-03-19 02:47:00,
2013-03-18 20:52:00,42.4,8.2,30.50,NE,45,3.0,9.0,24,0.00,,,0.00,meteohub,2013-03-19 02:52:00,
2013-03-18 20:58:00,42.4,8.2,30.50,NE,45,4.0,9.0,24,0.00,,,0.00,meteohub,2013-03-19 02:58:00,
2013-03-18 21:03:00,42.1,7.9,30.51,West,270,2.0,7.0,24,0.00,,,0.00,meteohub,2013-03-19 03:03:00,
2013-03-18 21:08:00,41.7,8.4,30.51,NW,315,6.0,7.0,25,0.00,,,0.00,meteohub,2013-03-19 03:08:00,
2013-03-18 21:14:00,41.5,7.3,30.51,East,90,5.0,7.0,24,0.00,,,0.00,meteohub,2013-03-19 03:14:00,
2013-03-18 21:19:00,41.7,8.4,30.51,NE,45,4.0,7.0,25,0.00,,,0.00,meteohub,2013-03-19 03:19:00,
2013-03-18 21:24:00,41.5,8.2,30.51,NE,45,2.0,7.0,25,0.00,,,0.00,meteohub,2013-03-19 03:24:00,
2013-03-18 21:29:00,41.4,8.2,30.51,SW,225,2.0,6.0,25,0.00,,,0.00,meteohub,2013-03-19 03:29:00,
2013-03-18 21:34:00,40.6,8.4,30.51,SW,225,3.0,6.0,26,0.00,,,0.00,meteohub,2013-03-19 03:34:00,
2013-03-18 21:39:00,40.3,8.1,30.51,NW,315,2.0,5.0,26,0.00,,,0.00,meteohub,2013-03-19 03:39:00,
2013-03-18 21:45:00,40.1,7.9,30.51,East,90,5.0,5.0,26,0.00,,,0.00,meteohub,2013-03-19 03:45:00,
2013-03-18 21:50:00,40.3,8.1,30.52,SW,225,2.0,4.0,26,0.00,,,0.00,meteohub,2013-03-19 03:50:00,
2013-03-18 21:55:00,40.1,7.9,30.52,East,90,4.0,5.0,26,0.00,,,0.00,meteohub,2013-03-19 03:55:00,
2013-03-18 22:00:00,40.1,7.9,30.52,SW,225,3.0,5.0,26,0.00,,,0.00,meteohub,2013-03-19 04:00:00,
2013-03-18 22:01:00,40.1,7.9,30.52,SW,225,3.0,5.0,26,0.00,,,0.00,meteohub,2013-03-19 04:01:00,
2013-03-18 22:02:00,40.1,7.9,30.52,SW,225,3.0,5.0,26,0.00,,,0.00,meteohub,2013-03-19 04:02:00,
2013-03-18 22:08:00,39.9,7.9,30.52,SE,135,4.0,5.0,26,0.00,,,0.00,meteohub,2013-03-19 04:08:00,
2013-03-18 22:13:00,40.1,7.9,30.52,North,0,5.0,5.0,26,0.00,,,0.00,meteohub,2013-03-19 04:13:00,
2013-03-18 22:18:00,40.6,8.4,30.52,NE,45,4.0,8.0,26,0.00,,,0.00,meteohub,2013-03-19 04:18:00,
2013-03-18 22:23:00,40.3,8.1,30.52,West,270,4.0,8.0,26,0.00,,,0.00,meteohub,2013-03-19 04:23:00,
2013-03-18 22:28:00,40.1,7.9,30.52,SW,225,3.0,7.0,26,0.00,,,0.00,meteohub,2013-03-19 04:28:00,
2013-03-18 22:34:00,40.1,7.9,30.52,East,90,4.0,7.0,26,0.00,,,0.00,meteohub,2013-03-19 04:34:00,
2013-03-18 22:39:00,40.1,7.9,30.52,South,180,4.0,7.0,26,0.00,,,0.00,meteohub,2013-03-19 04:39:00,
2013-03-18 22:44:00,39.6,7.5,30.52,North,0,6.0,7.0,26,0.00,,,0.00,meteohub,2013-03-19 04:44:00,
2013-03-18 22:49:00,39.6,7.5,30.52,South,180,4.0,6.0,26,0.00,,,0.00,meteohub,2013-03-19 04:49:00,
2013-03-18 22:54:00,39.6,7.5,30.52,North,0,4.0,6.0,26,0.00,,,0.00,meteohub,2013-03-19 04:54:00,
2013-03-18 22:59:00,39.2,7.2,30.52,NE,45,3.0,6.0,26,0.00,,,0.00,meteohub,2013-03-19 04:59:00,
2013-03-18 23:04:00,38.8,7.7,30.52,North,0,2.0,5.0,27,0.00,,,0.00,meteohub,2013-03-19 05:04:00,
2013-03-18 23:09:00,38.3,8.1,30.52,South,180,2.0,4.0,28,0.00,,,0.00,meteohub,2013-03-19 05:09:00,
2013-03-18 23:15:00,37.0,3.6,30.52,SW,225,3.0,4.0,24,0.00,,,0.00,meteohub,2013-03-19 05:15:00,
2013-03-18 23:20:00,37.0,3.6,30.51,East,90,4.0,4.0,24,0.00,,,0.00,meteohub,2013-03-19 05:20:00,
2013-03-18 23:25:00,37.4,7.3,30.51,NW,315,3.0,4.0,28,0.00,,,0.00,meteohub,2013-03-19 05:25:00,
2013-03-18 23:30:00,37.2,3.7,30.51,South,180,3.0,5.0,24,0.00,,,0.00,meteohub,2013-03-19 05:30:00,
2013-03-18 23:35:00,37.2,3.7,30.51,SW,225,2.0,8.0,24,0.00,,,0.00,meteohub,2013-03-19 05:35:00,
2013-03-18 23:40:00,37.2,3.7,30.51,NE,45,4.0,8.0,24,0.00,,,0.00,meteohub,2013-03-19 05:40:00,
2013-03-18 23:45:00,38.3,8.1,30.51,East,90,4.0,11.0,28,0.00,,,0.00,meteohub,2013-03-19 05:45:00,
2013-03-18 23:51:00,39.7,7.7,30.51,North,0,4.0,11.0,26,0.00,,,0.00,meteohub,2013-03-19 05:51:00,
2013-03-18 23:56:00,40.8,7.7,30.51,East,90,2.0,11.0,25,0.00,,,0.00,meteohub,2013-03-19 05:56:00,